< < Back
Terminal Aerodrome Forecast


Current Version              Previous Versions:   1  2  3  4  5  6  7  8  9  

Terminal Aerodrome Forecast

380
FTUS44 KBMX 281720
TAFMGM
TAF
KMGM 281720Z 2818/2918 08010G17KT P6SM SCT050
     FM290100 07006KT P6SM SCT250=

Latest METAR

784
SAUS80 KWBC 291900 CCA
MTRMGM
METAR KMGM 291853Z 09012KT 10SM BKN055 36/19 A3003 RMK AO2 SLP166
T03560189


USA.gov is the U.S. government's official web portal to all federal, state and local government web resources and services.